METAR Data
IDs: Format: Raw Decoded Include TAF

Data at: 0728 UTC 18 Sep 2021

VTBU 180700Z 19010KT 9999 FEW020 31/26 Q1009 NOSIG